sensor_id;sensor_type;location;lat;lon;timestamp;P1;durP1;ratioP1;P2;durP2;ratioP2
51475;SDS011;37554;50.362;7.568;2023-05-10T00:00:07;0.20;;;0.10;;
51475;SDS011;37554;50.362;7.568;2023-05-10T00:02:34;0.20;;;0.10;;
51475;SDS011;37554;50.362;7.568;2023-05-10T00:04:59;1.25;;;0.10;;
51475;SDS011;37554;50.362;7.568;2023-05-10T00:07:26;1.45;;;0.10;;
51475;SDS011;37554;50.362;7.568;2023-05-10T00:09:51;0.00;;;0.00;;
51475;SDS011;37554;50.362;7.568;2023-05-10T00:12:17;0.40;;;0.10;;
51475;SDS011;37554;50.362;7.568;2023-05-10T00:14:43;0.45;;;0.10;;
51475;SDS011;37554;50.362;7.568;2023-05-10T00:17:08;0.20;;;0.10;;
51475;SDS011;37554;50.362;7.568;2023-05-10T00:19:34;0.15;;;0.08;;
51475;SDS011;37554;50.362;7.568;2023-05-10T00:21:59;2.00;;;0.20;;
51475;SDS011;37554;50.362;7.568;2023-05-10T00:24:25;0.50;;;0.10;;
51475;SDS011;37554;50.362;7.568;2023-05-10T00:26:51;0.22;;;0.10;;
51475;SDS011;37554;50.362;7.568;2023-05-10T00:29:16;1.02;;;0.13;;
51475;SDS011;37554;50.362;7.568;2023-05-10T00:31:42;0.08;;;0.08;;
51475;SDS011;37554;50.362;7.568;2023-05-10T00:34:07;2.20;;;0.10;;
51475;SDS011;37554;50.362;7.568;2023-05-10T00:36:33;0.30;;;0.17;;
51475;SDS011;37554;50.362;7.568;2023-05-10T00:38:59;0.20;;;0.10;;
51475;SDS011;37554;50.362;7.568;2023-05-10T00:41:25;0.13;;;0.08;;
51475;SDS011;37554;50.362;7.568;2023-05-10T00:43:51;0.00;;;0.00;;
51475;SDS011;37554;50.362;7.568;2023-05-10T00:46:16;1.17;;;0.15;;
51475;SDS011;37554;50.362;7.568;2023-05-10T00:48:43;0.15;;;0.00;;
51475;SDS011;37554;50.362;7.568;2023-05-10T00:51:09;0.38;;;0.10;;
51475;SDS011;37554;50.362;7.568;2023-05-10T00:53:35;0.45;;;0.10;;
51475;SDS011;37554;50.362;7.568;2023-05-10T00:56:00;0.10;;;0.08;;
51475;SDS011;37554;50.362;7.568;2023-05-10T00:58:28;0.25;;;0.05;;
51475;SDS011;37554;50.362;7.568;2023-05-10T01:00:55;0.65;;;0.15;;
51475;SDS011;37554;50.362;7.568;2023-05-10T01:03:22;1.42;;;0.10;;
51475;SDS011;37554;50.362;7.568;2023-05-10T01:05:47;0.57;;;0.10;;
51475;SDS011;37554;50.362;7.568;2023-05-10T01:08:13;0.10;;;0.10;;
51475;SDS011;37554;50.362;7.568;2023-05-10T01:10:39;0.20;;;0.00;;
51475;SDS011;37554;50.362;7.568;2023-05-10T01:13:05;0.03;;;0.00;;
51475;SDS011;37554;50.362;7.568;2023-05-10T01:15:31;0.10;;;0.10;;
51475;SDS011;37554;50.362;7.568;2023-05-10T01:17:57;0.95;;;0.10;;
51475;SDS011;37554;50.362;7.568;2023-05-10T01:20:23;0.40;;;0.00;;
51475;SDS011;37554;50.362;7.568;2023-05-10T01:28:42;0.17;;;0.00;;
51475;SDS011;37554;50.362;7.568;2023-05-10T01:32:14;0.90;;;0.10;;
51475;SDS011;37554;50.362;7.568;2023-05-10T01:35:00;0.10;;;0.10;;
51475;SDS011;37554;50.362;7.568;2023-05-10T01:40:39;0.10;;;0.08;;
51475;SDS011;37554;50.362;7.568;2023-05-10T01:43:30;0.08;;;0.08;;
51475;SDS011;37554;50.362;7.568;2023-05-10T01:48:35;1.10;;;0.00;;
51475;SDS011;37554;50.362;7.568;2023-05-10T01:51:05;2.67;;;0.10;;
51475;SDS011;37554;50.362;7.568;2023-05-10T01:53:31;0.10;;;0.10;;
51475;SDS011;37554;50.362;7.568;2023-05-10T01:55:59;0.28;;;0.10;;
51475;SDS011;37554;50.362;7.568;2023-05-10T01:58:27;1.30;;;0.10;;
51475;SDS011;37554;50.362;7.568;2023-05-10T02:00:55;0.10;;;0.10;;
51475;SDS011;37554;50.362;7.568;2023-05-10T02:03:23;0.10;;;0.10;;
51475;SDS011;37554;50.362;7.568;2023-05-10T02:05:51;2.40;;;0.10;;
51475;SDS011;37554;50.362;7.568;2023-05-10T02:08:18;1.02;;;0.20;;
51475;SDS011;37554;50.362;7.568;2023-05-10T02:10:46;0.20;;;0.10;;
51475;SDS011;37554;50.362;7.568;2023-05-10T02:13:13;0.35;;;0.10;;
51475;SDS011;37554;50.362;7.568;2023-05-10T02:15:41;0.38;;;0.10;;
51475;SDS011;37554;50.362;7.568;2023-05-10T02:18:07;0.10;;;0.10;;
51475;SDS011;37554;50.362;7.568;2023-05-10T02:20:35;0.32;;;0.10;;
51475;SDS011;37554;50.362;7.568;2023-05-10T02:23:02;0.55;;;0.10;;
51475;SDS011;37554;50.362;7.568;2023-05-10T02:25:29;0.77;;;0.15;;
51475;SDS011;37554;50.362;7.568;2023-05-10T02:27:57;0.50;;;0.10;;
51475;SDS011;37554;50.362;7.568;2023-05-10T02:30:26;0.47;;;0.10;;
51475;SDS011;37554;50.362;7.568;2023-05-10T02:32:53;0.17;;;0.10;;
51475;SDS011;37554;50.362;7.568;2023-05-10T02:35:21;0.68;;;0.10;;
51475;SDS011;37554;50.362;7.568;2023-05-10T02:37:48;0.68;;;0.10;;
51475;SDS011;37554;50.362;7.568;2023-05-10T02:40:15;1.70;;;0.10;;
51475;SDS011;37554;50.362;7.568;2023-05-10T02:42:43;0.65;;;0.20;;
51475;SDS011;37554;50.362;7.568;2023-05-10T02:45:12;0.65;;;0.10;;
51475;SDS011;37554;50.362;7.568;2023-05-10T02:47:43;0.10;;;0.10;;
51475;SDS011;37554;50.362;7.568;2023-05-10T02:50:09;0.17;;;0.10;;
51475;SDS011;37554;50.362;7.568;2023-05-10T02:52:46;0.20;;;0.10;;
51475;SDS011;37554;50.362;7.568;2023-05-10T02:55:15;0.35;;;0.10;;
51475;SDS011;37554;50.362;7.568;2023-05-10T02:57:56;1.08;;;0.20;;
51475;SDS011;37554;50.362;7.568;2023-05-10T03:00:24;0.35;;;0.10;;
51475;SDS011;37554;50.362;7.568;2023-05-10T03:02:50;0.35;;;0.10;;
51475;SDS011;37554;50.362;7.568;2023-05-10T03:05:16;0.20;;;0.10;;
51475;SDS011;37554;50.362;7.568;2023-05-10T03:07:41;0.03;;;0.03;;
51475;SDS011;37554;50.362;7.568;2023-05-10T03:10:07;0.15;;;0.10;;
51475;SDS011;37554;50.362;7.568;2023-05-10T03:18:02;0.32;;;0.10;;
51475;SDS011;37554;50.362;7.568;2023-05-10T03:20:35;1.08;;;0.10;;
51475;SDS011;37554;50.362;7.568;2023-05-10T03:23:12;0.57;;;0.10;;
51475;SDS011;37554;50.362;7.568;2023-05-10T03:25:52;0.45;;;0.10;;
51475;SDS011;37554;50.362;7.568;2023-05-10T03:28:18;1.17;;;0.20;;
51475;SDS011;37554;50.362;7.568;2023-05-10T03:30:45;1.00;;;0.17;;
51475;SDS011;37554;50.362;7.568;2023-05-10T03:33:11;0.38;;;0.15;;
51475;SDS011;37554;50.362;7.568;2023-05-10T03:35:38;0.20;;;0.10;;
51475;SDS011;37554;50.362;7.568;2023-05-10T03:38:03;0.20;;;0.10;;
51475;SDS011;37554;50.362;7.568;2023-05-10T03:40:29;2.13;;;0.20;;
51475;SDS011;37554;50.362;7.568;2023-05-10T03:42:56;0.10;;;0.08;;
51475;SDS011;37554;50.362;7.568;2023-05-10T03:45:23;4.00;;;0.20;;
51475;SDS011;37554;50.362;7.568;2023-05-10T03:47:48;0.25;;;0.13;;
51475;SDS011;37554;50.362;7.568;2023-05-10T03:50:14;0.47;;;0.17;;
51475;SDS011;37554;50.362;7.568;2023-05-10T03:52:39;1.98;;;0.30;;
51475;SDS011;37554;50.362;7.568;2023-05-10T03:55:06;0.40;;;0.20;;
51475;SDS011;37554;50.362;7.568;2023-05-10T03:57:32;1.40;;;0.20;;
51475;SDS011;37554;50.362;7.568;2023-05-10T03:59:58;0.10;;;0.10;;
51475;SDS011;37554;50.362;7.568;2023-05-10T04:02:24;0.45;;;0.10;;
51475;SDS011;37554;50.362;7.568;2023-05-10T04:04:50;1.55;;;0.40;;
51475;SDS011;37554;50.362;7.568;2023-05-10T04:07:16;0.20;;;0.20;;
51475;SDS011;37554;50.362;7.568;2023-05-10T04:09:41;2.28;;;0.20;;
51475;SDS011;37554;50.362;7.568;2023-05-10T04:12:07;1.10;;;0.28;;
51475;SDS011;37554;50.362;7.568;2023-05-10T04:14:33;2.47;;;0.30;;
51475;SDS011;37554;50.362;7.568;2023-05-10T04:16:58;0.50;;;0.13;;
51475;SDS011;37554;50.362;7.568;2023-05-10T04:19:28;0.50;;;0.38;;
51475;SDS011;37554;50.362;7.568;2023-05-10T04:21:55;0.70;;;0.28;;
51475;SDS011;37554;50.362;7.568;2023-05-10T04:24:20;2.28;;;0.70;;
51475;SDS011;37554;50.362;7.568;2023-05-10T04:26:46;0.20;;;0.20;;
51475;SDS011;37554;50.362;7.568;2023-05-10T04:29:11;1.35;;;0.40;;
51475;SDS011;37554;50.362;7.568;2023-05-10T04:31:37;0.60;;;0.30;;
51475;SDS011;37554;50.362;7.568;2023-05-10T04:34:03;0.73;;;0.43;;
51475;SDS011;37554;50.362;7.568;2023-05-10T04:36:29;2.13;;;0.20;;
51475;SDS011;37554;50.362;7.568;2023-05-10T04:38:54;2.22;;;0.28;;
51475;SDS011;37554;50.362;7.568;2023-05-10T04:41:20;1.92;;;0.30;;
51475;SDS011;37554;50.362;7.568;2023-05-10T04:43:46;0.57;;;0.30;;
51475;SDS011;37554;50.362;7.568;2023-05-10T04:46:14;1.35;;;0.52;;
51475;SDS011;37554;50.362;7.568;2023-05-10T04:48:39;0.88;;;0.20;;
51475;SDS011;37554;50.362;7.568;2023-05-10T04:51:05;1.75;;;0.40;;
51475;SDS011;37554;50.362;7.568;2023-05-10T04:53:31;0.90;;;0.20;;
51475;SDS011;37554;50.362;7.568;2023-05-10T04:55:57;1.55;;;0.38;;
51475;SDS011;37554;50.362;7.568;2023-05-10T04:58:23;0.47;;;0.20;;
51475;SDS011;37554;50.362;7.568;2023-05-10T05:00:48;0.30;;;0.20;;
51475;SDS011;37554;50.362;7.568;2023-05-10T05:03:14;0.40;;;0.30;;
51475;SDS011;37554;50.362;7.568;2023-05-10T05:05:40;0.98;;;0.40;;
51475;SDS011;37554;50.362;7.568;2023-05-10T05:08:05;0.47;;;0.30;;
51475;SDS011;37554;50.362;7.568;2023-05-10T05:10:31;1.77;;;0.40;;
51475;SDS011;37554;50.362;7.568;2023-05-10T05:12:57;1.15;;;0.40;;
51475;SDS011;37554;50.362;7.568;2023-05-10T05:15:22;0.95;;;0.45;;
51475;SDS011;37554;50.362;7.568;2023-05-10T05:17:48;1.15;;;0.40;;
51475;SDS011;37554;50.362;7.568;2023-05-10T05:20:13;1.02;;;0.28;;
51475;SDS011;37554;50.362;7.568;2023-05-10T05:22:39;0.80;;;0.40;;
51475;SDS011;37554;50.362;7.568;2023-05-10T05:25:05;0.90;;;0.20;;
51475;SDS011;37554;50.362;7.568;2023-05-10T05:27:31;2.30;;;0.45;;
51475;SDS011;37554;50.362;7.568;2023-05-10T05:29:57;0.50;;;0.40;;
51475;SDS011;37554;50.362;7.568;2023-05-10T05:32:23;1.10;;;0.40;;
51475;SDS011;37554;50.362;7.568;2023-05-10T05:34:49;1.98;;;0.50;;
51475;SDS011;37554;50.362;7.568;2023-05-10T05:37:15;1.50;;;0.38;;
51475;SDS011;37554;50.362;7.568;2023-05-10T05:39:45;1.95;;;0.70;;
51475;SDS011;37554;50.362;7.568;2023-05-10T05:42:12;2.38;;;0.40;;
51475;SDS011;37554;50.362;7.568;2023-05-10T05:44:38;2.35;;;0.38;;
51475;SDS011;37554;50.362;7.568;2023-05-10T05:47:04;4.75;;;0.60;;
51475;SDS011;37554;50.362;7.568;2023-05-10T05:49:30;1.20;;;0.57;;
51475;SDS011;37554;50.362;7.568;2023-05-10T05:52:02;1.75;;;0.50;;
51475;SDS011;37554;50.362;7.568;2023-05-10T05:54:28;1.77;;;0.40;;
51475;SDS011;37554;50.362;7.568;2023-05-10T05:56:58;1.05;;;0.50;;
51475;SDS011;37554;50.362;7.568;2023-05-10T05:59:24;3.53;;;0.70;;
51475;SDS011;37554;50.362;7.568;2023-05-10T06:01:50;0.90;;;0.50;;
51475;SDS011;37554;50.362;7.568;2023-05-10T06:04:16;2.58;;;0.40;;
51475;SDS011;37554;50.362;7.568;2023-05-10T06:06:42;2.13;;;0.60;;
51475;SDS011;37554;50.362;7.568;2023-05-10T06:09:08;2.97;;;0.65;;
51475;SDS011;37554;50.362;7.568;2023-05-10T06:11:34;1.98;;;0.68;;
51475;SDS011;37554;50.362;7.568;2023-05-10T06:14:00;3.90;;;0.60;;
51475;SDS011;37554;50.362;7.568;2023-05-10T06:16:26;2.08;;;0.50;;
51475;SDS011;37554;50.362;7.568;2023-05-10T06:18:52;5.68;;;0.77;;
51475;SDS011;37554;50.362;7.568;2023-05-10T06:21:18;1.98;;;0.60;;
51475;SDS011;37554;50.362;7.568;2023-05-10T06:23:43;2.00;;;0.40;;
51475;SDS011;37554;50.362;7.568;2023-05-10T06:26:09;1.83;;;0.45;;
51475;SDS011;37554;50.362;7.568;2023-05-10T06:28:35;2.88;;;0.93;;
51475;SDS011;37554;50.362;7.568;2023-05-10T06:31:03;1.52;;;0.50;;
51475;SDS011;37554;50.362;7.568;2023-05-10T06:33:29;3.80;;;0.40;;
51475;SDS011;37554;50.362;7.568;2023-05-10T06:35:55;0.70;;;0.43;;
51475;SDS011;37554;50.362;7.568;2023-05-10T06:38:20;2.55;;;0.50;;
51475;SDS011;37554;50.362;7.568;2023-05-10T06:40:46;0.45;;;0.35;;
51475;SDS011;37554;50.362;7.568;2023-05-10T06:43:12;2.65;;;0.63;;
51475;SDS011;37554;50.362;7.568;2023-05-10T06:45:38;1.95;;;0.50;;
51475;SDS011;37554;50.362;7.568;2023-05-10T06:48:04;1.35;;;0.60;;
51475;SDS011;37554;50.362;7.568;2023-05-10T06:50:29;2.28;;;0.52;;
51475;SDS011;37554;50.362;7.568;2023-05-10T06:52:55;3.38;;;0.50;;
51475;SDS011;37554;50.362;7.568;2023-05-10T06:55:21;1.08;;;0.50;;
51475;SDS011;37554;50.362;7.568;2023-05-10T06:57:46;2.85;;;0.70;;
51475;SDS011;37554;50.362;7.568;2023-05-10T07:00:13;1.63;;;0.70;;
51475;SDS011;37554;50.362;7.568;2023-05-10T07:02:39;1.67;;;0.50;;
51475;SDS011;37554;50.362;7.568;2023-05-10T07:05:05;0.95;;;0.40;;
51475;SDS011;37554;50.362;7.568;2023-05-10T07:07:31;1.00;;;0.70;;
51475;SDS011;37554;50.362;7.568;2023-05-10T07:09:56;1.20;;;0.57;;
51475;SDS011;37554;50.362;7.568;2023-05-10T07:12:23;1.55;;;0.60;;
51475;SDS011;37554;50.362;7.568;2023-05-10T07:14:49;3.30;;;0.80;;
51475;SDS011;37554;50.362;7.568;2023-05-10T07:17:14;2.13;;;0.60;;
51475;SDS011;37554;50.362;7.568;2023-05-10T07:19:40;3.92;;;0.60;;
51475;SDS011;37554;50.362;7.568;2023-05-10T07:22:06;3.03;;;0.82;;
51475;SDS011;37554;50.362;7.568;2023-05-10T07:24:32;1.75;;;0.70;;
51475;SDS011;37554;50.362;7.568;2023-05-10T07:26:58;1.00;;;0.45;;
51475;SDS011;37554;50.362;7.568;2023-05-10T07:29:24;3.28;;;0.70;;
51475;SDS011;37554;50.362;7.568;2023-05-10T07:31:50;3.08;;;0.70;;
51475;SDS011;37554;50.362;7.568;2023-05-10T07:34:15;6.72;;;0.90;;
51475;SDS011;37554;50.362;7.568;2023-05-10T07:36:41;2.95;;;0.90;;
51475;SDS011;37554;50.362;7.568;2023-05-10T07:39:06;1.42;;;0.63;;
51475;SDS011;37554;50.362;7.568;2023-05-10T07:41:32;2.65;;;1.08;;
51475;SDS011;37554;50.362;7.568;2023-05-10T07:43:58;1.90;;;0.75;;
51475;SDS011;37554;50.362;7.568;2023-05-10T07:46:23;1.77;;;0.95;;
51475;SDS011;37554;50.362;7.568;2023-05-10T07:48:49;4.30;;;0.70;;
51475;SDS011;37554;50.362;7.568;2023-05-10T07:51:15;4.38;;;0.80;;
51475;SDS011;37554;50.362;7.568;2023-05-10T07:53:40;2.85;;;0.77;;
51475;SDS011;37554;50.362;7.568;2023-05-10T07:58:58;1.17;;;0.77;;
51475;SDS011;37554;50.362;7.568;2023-05-10T08:01:24;2.38;;;1.00;;
51475;SDS011;37554;50.362;7.568;2023-05-10T08:03:51;2.90;;;1.15;;
51475;SDS011;37554;50.362;7.568;2023-05-10T08:06:20;3.28;;;1.00;;
51475;SDS011;37554;50.362;7.568;2023-05-10T08:08:47;2.97;;;0.75;;
51475;SDS011;37554;50.362;7.568;2023-05-10T08:11:19;3.13;;;0.75;;
51475;SDS011;37554;50.362;7.568;2023-05-10T08:13:45;2.75;;;0.95;;
51475;SDS011;37554;50.362;7.568;2023-05-10T08:16:13;2.15;;;0.70;;
51475;SDS011;37554;50.362;7.568;2023-05-10T08:18:43;2.00;;;0.88;;
51475;SDS011;37554;50.362;7.568;2023-05-10T08:21:10;3.10;;;0.70;;
51475;SDS011;37554;50.362;7.568;2023-05-10T08:23:38;4.80;;;0.90;;
51475;SDS011;37554;50.362;7.568;2023-05-10T08:26:04;1.50;;;0.82;;
51475;SDS011;37554;50.362;7.568;2023-05-10T08:28:30;2.60;;;0.80;;
51475;SDS011;37554;50.362;7.568;2023-05-10T08:30:56;2.70;;;0.75;;
51475;SDS011;37554;50.362;7.568;2023-05-10T08:33:21;4.43;;;1.13;;
51475;SDS011;37554;50.362;7.568;2023-05-10T08:35:47;2.17;;;0.85;;
51475;SDS011;37554;50.362;7.568;2023-05-10T08:38:13;2.35;;;1.08;;
51475;SDS011;37554;50.362;7.568;2023-05-10T08:40:40;1.35;;;0.70;;
51475;SDS011;37554;50.362;7.568;2023-05-10T08:43:10;1.70;;;0.95;;
51475;SDS011;37554;50.362;7.568;2023-05-10T08:45:38;1.42;;;0.80;;
51475;SDS011;37554;50.362;7.568;2023-05-10T08:48:06;2.92;;;0.90;;
51475;SDS011;37554;50.362;7.568;2023-05-10T08:50:34;2.67;;;0.95;;
51475;SDS011;37554;50.362;7.568;2023-05-10T08:53:01;1.20;;;0.60;;
51475;SDS011;37554;50.362;7.568;2023-05-10T08:55:30;1.10;;;0.60;;
51475;SDS011;37554;50.362;7.568;2023-05-10T08:57:57;1.77;;;0.82;;
51475;SDS011;37554;50.362;7.568;2023-05-10T09:00:23;1.67;;;1.00;;
51475;SDS011;37554;50.362;7.568;2023-05-10T09:02:50;1.90;;;0.80;;
51475;SDS011;37554;50.362;7.568;2023-05-10T09:05:16;1.77;;;0.65;;
51475;SDS011;37554;50.362;7.568;2023-05-10T09:07:42;2.40;;;0.77;;
51475;SDS011;37554;50.362;7.568;2023-05-10T09:10:08;2.33;;;0.95;;
51475;SDS011;37554;50.362;7.568;2023-05-10T09:12:35;1.50;;;0.70;;
51475;SDS011;37554;50.362;7.568;2023-05-10T09:15:01;1.65;;;0.70;;
51475;SDS011;37554;50.362;7.568;2023-05-10T09:17:27;1.20;;;0.47;;
51475;SDS011;37554;50.362;7.568;2023-05-10T09:20:01;1.30;;;0.63;;
51475;SDS011;37554;50.362;7.568;2023-05-10T09:22:29;0.90;;;0.55;;
51475;SDS011;37554;50.362;7.568;2023-05-10T09:25:09;3.40;;;0.70;;
51475;SDS011;37554;50.362;7.568;2023-05-10T09:27:43;2.75;;;0.50;;
51475;SDS011;37554;50.362;7.568;2023-05-10T09:30:14;0.80;;;0.40;;
51475;SDS011;37554;50.362;7.568;2023-05-10T09:32:51;1.38;;;0.60;;
51475;SDS011;37554;50.362;7.568;2023-05-10T09:35:18;2.13;;;0.38;;
51475;SDS011;37554;50.362;7.568;2023-05-10T09:37:46;1.00;;;0.50;;
51475;SDS011;37554;50.362;7.568;2023-05-10T09:40:13;1.38;;;0.43;;
51475;SDS011;37554;50.362;7.568;2023-05-10T09:43:02;1.45;;;0.50;;
51475;SDS011;37554;50.362;7.568;2023-05-10T09:45:32;1.00;;;0.38;;
51475;SDS011;37554;50.362;7.568;2023-05-10T09:47:59;0.93;;;0.38;;
51475;SDS011;37554;50.362;7.568;2023-05-10T09:50:26;0.57;;;0.40;;
51475;SDS011;37554;50.362;7.568;2023-05-10T09:52:56;1.27;;;0.47;;
51475;SDS011;37554;50.362;7.568;2023-05-10T09:55:43;1.73;;;0.57;;
51475;SDS011;37554;50.362;7.568;2023-05-10T10:00:37;0.77;;;0.32;;
51475;SDS011;37554;50.362;7.568;2023-05-10T10:03:14;0.65;;;0.40;;
51475;SDS011;37554;50.362;7.568;2023-05-10T10:05:42;0.98;;;0.30;;
51475;SDS011;37554;50.362;7.568;2023-05-10T10:08:09;0.75;;;0.40;;
51475;SDS011;37554;50.362;7.568;2023-05-10T10:10:35;0.68;;;0.30;;
51475;SDS011;37554;50.362;7.568;2023-05-10T10:13:01;1.02;;;0.63;;
51475;SDS011;37554;50.362;7.568;2023-05-10T10:15:27;1.55;;;0.40;;
51475;SDS011;37554;50.362;7.568;2023-05-10T10:17:53;1.00;;;0.60;;
51475;SDS011;37554;50.362;7.568;2023-05-10T10:20:19;0.93;;;0.60;;
51475;SDS011;37554;50.362;7.568;2023-05-10T10:22:46;0.47;;;0.38;;
51475;SDS011;37554;50.362;7.568;2023-05-10T10:25:13;0.52;;;0.50;;
51475;SDS011;37554;50.362;7.568;2023-05-10T10:36:05;0.63;;;0.52;;
51475;SDS011;37554;50.362;7.568;2023-05-10T10:41:32;0.75;;;0.60;;
51475;SDS011;37554;50.362;7.568;2023-05-10T10:52:25;3.38;;;0.90;;
51475;SDS011;37554;50.362;7.568;2023-05-10T10:57:53;1.55;;;1.15;;
51475;SDS011;37554;50.362;7.568;2023-05-10T11:06:01;1.42;;;1.00;;
51475;SDS011;37554;50.362;7.568;2023-05-10T11:08:17;1.90;;;1.10;;
51475;SDS011;37554;50.362;7.568;2023-05-10T11:13:41;1.58;;;1.00;;
51475;SDS011;37554;50.362;7.568;2023-05-10T11:16:19;1.65;;;0.90;;
51475;SDS011;37554;50.362;7.568;2023-05-10T11:21:18;1.38;;;0.80;;
51475;SDS011;37554;50.362;7.568;2023-05-10T11:23:51;3.13;;;0.98;;
51475;SDS011;37554;50.362;7.568;2023-05-10T11:26:21;1.33;;;0.90;;
51475;SDS011;37554;50.362;7.568;2023-05-10T11:28:50;2.47;;;1.15;;
51475;SDS011;37554;50.362;7.568;2023-05-10T11:31:17;0.93;;;0.70;;
51475;SDS011;37554;50.362;7.568;2023-05-10T11:33:44;1.92;;;0.88;;
51475;SDS011;37554;50.362;7.568;2023-05-10T11:36:14;1.60;;;0.68;;
51475;SDS011;37554;50.362;7.568;2023-05-10T11:38:41;1.23;;;0.70;;
51475;SDS011;37554;50.362;7.568;2023-05-10T11:41:10;1.08;;;0.65;;
51475;SDS011;37554;50.362;7.568;2023-05-10T11:43:38;0.90;;;0.80;;
51475;SDS011;37554;50.362;7.568;2023-05-10T11:46:04;1.58;;;0.80;;
51475;SDS011;37554;50.362;7.568;2023-05-10T11:48:31;1.73;;;0.60;;
51475;SDS011;37554;50.362;7.568;2023-05-10T11:50:57;1.10;;;0.70;;
51475;SDS011;37554;50.362;7.568;2023-05-10T11:53:23;1.05;;;0.60;;
51475;SDS011;37554;50.362;7.568;2023-05-10T11:55:52;1.15;;;0.80;;
51475;SDS011;37554;50.362;7.568;2023-05-10T11:58:18;1.08;;;0.40;;
51475;SDS011;37554;50.362;7.568;2023-05-10T12:00:44;0.68;;;0.40;;
51475;SDS011;37554;50.362;7.568;2023-05-10T12:03:10;0.60;;;0.32;;
51475;SDS011;37554;50.362;7.568;2023-05-10T12:05:36;0.63;;;0.47;;
51475;SDS011;37554;50.362;7.568;2023-05-10T12:08:14;0.60;;;0.60;;
51475;SDS011;37554;50.362;7.568;2023-05-10T12:10:41;1.15;;;0.50;;
51475;SDS011;37554;50.362;7.568;2023-05-10T12:13:13;1.25;;;0.40;;
51475;SDS011;37554;50.362;7.568;2023-05-10T12:15:40;0.57;;;0.50;;
51475;SDS011;37554;50.362;7.568;2023-05-10T12:18:08;0.63;;;0.40;;
51475;SDS011;37554;50.362;7.568;2023-05-10T12:20:35;1.30;;;0.60;;
51475;SDS011;37554;50.362;7.568;2023-05-10T12:23:01;0.55;;;0.35;;
51475;SDS011;37554;50.362;7.568;2023-05-10T12:25:32;0.43;;;0.30;;
51475;SDS011;37554;50.362;7.568;2023-05-10T12:27:59;0.28;;;0.20;;
51475;SDS011;37554;50.362;7.568;2023-05-10T12:30:28;0.88;;;0.22;;
51475;SDS011;37554;50.362;7.568;2023-05-10T12:32:59;1.02;;;0.45;;
51475;SDS011;37554;50.362;7.568;2023-05-10T12:35:58;0.50;;;0.30;;
51475;SDS011;37554;50.362;7.568;2023-05-10T12:38:25;1.63;;;0.30;;
51475;SDS011;37554;50.362;7.568;2023-05-10T12:40:54;0.63;;;0.30;;
51475;SDS011;37554;50.362;7.568;2023-05-10T12:43:27;0.40;;;0.28;;
51475;SDS011;37554;50.362;7.568;2023-05-10T12:45:53;0.60;;;0.20;;
51475;SDS011;37554;50.362;7.568;2023-05-10T12:48:19;0.63;;;0.40;;
51475;SDS011;37554;50.362;7.568;2023-05-10T12:50:45;1.00;;;0.30;;
51475;SDS011;37554;50.362;7.568;2023-05-10T12:53:12;0.85;;;0.20;;
51475;SDS011;37554;50.362;7.568;2023-05-10T12:55:40;0.38;;;0.13;;
51475;SDS011;37554;50.362;7.568;2023-05-10T12:58:09;1.20;;;0.20;;
51475;SDS011;37554;50.362;7.568;2023-05-10T13:00:35;0.88;;;0.20;;
51475;SDS011;37554;50.362;7.568;2023-05-10T13:03:02;0.60;;;0.20;;
51475;SDS011;37554;50.362;7.568;2023-05-10T13:05:30;0.43;;;0.30;;
51475;SDS011;37554;50.362;7.568;2023-05-10T13:07:56;0.65;;;0.20;;
51475;SDS011;37554;50.362;7.568;2023-05-10T13:10:22;0.38;;;0.20;;
51475;SDS011;37554;50.362;7.568;2023-05-10T13:12:48;0.75;;;0.20;;
51475;SDS011;37554;50.362;7.568;2023-05-10T13:15:14;0.22;;;0.20;;
51475;SDS011;37554;50.362;7.568;2023-05-10T13:17:40;0.20;;;0.15;;
51475;SDS011;37554;50.362;7.568;2023-05-10T13:20:07;0.68;;;0.20;;
51475;SDS011;37554;50.362;7.568;2023-05-10T13:22:34;0.38;;;0.20;;
51475;SDS011;37554;50.362;7.568;2023-05-10T13:25:00;0.20;;;0.10;;
51475;SDS011;37554;50.362;7.568;2023-05-10T13:27:26;0.30;;;0.10;;
51475;SDS011;37554;50.362;7.568;2023-05-10T13:29:52;0.50;;;0.20;;
51475;SDS011;37554;50.362;7.568;2023-05-10T13:32:18;1.17;;;0.20;;
51475;SDS011;37554;50.362;7.568;2023-05-10T13:34:44;0.75;;;0.10;;
51475;SDS011;37554;50.362;7.568;2023-05-10T13:37:09;0.20;;;0.20;;
51475;SDS011;37554;50.362;7.568;2023-05-10T13:39:35;0.28;;;0.10;;
51475;SDS011;37554;50.362;7.568;2023-05-10T13:42:02;0.60;;;0.10;;
51475;SDS011;37554;50.362;7.568;2023-05-10T13:44:28;0.17;;;0.10;;
51475;SDS011;37554;50.362;7.568;2023-05-10T13:46:54;0.10;;;0.10;;
51475;SDS011;37554;50.362;7.568;2023-05-10T13:49:20;0.13;;;0.10;;
51475;SDS011;37554;50.362;7.568;2023-05-10T13:51:47;0.75;;;0.20;;
51475;SDS011;37554;50.362;7.568;2023-05-10T13:54:12;0.50;;;0.20;;
51475;SDS011;37554;50.362;7.568;2023-05-10T13:56:38;0.93;;;0.10;;
51475;SDS011;37554;50.362;7.568;2023-05-10T13:59:05;0.30;;;0.20;;
51475;SDS011;37554;50.362;7.568;2023-05-10T14:01:32;0.60;;;0.15;;
51475;SDS011;37554;50.362;7.568;2023-05-10T14:03:58;0.32;;;0.10;;
51475;SDS011;37554;50.362;7.568;2023-05-10T14:06:24;0.10;;;0.10;;
51475;SDS011;37554;50.362;7.568;2023-05-10T14:08:49;0.82;;;0.10;;
51475;SDS011;37554;50.362;7.568;2023-05-10T14:11:15;1.75;;;0.20;;
51475;SDS011;37554;50.362;7.568;2023-05-10T14:13:41;0.08;;;0.08;;
51475;SDS011;37554;50.362;7.568;2023-05-10T14:16:07;0.57;;;0.10;;
51475;SDS011;37554;50.362;7.568;2023-05-10T14:18:32;0.20;;;0.10;;
51475;SDS011;37554;50.362;7.568;2023-05-10T14:20:58;0.20;;;0.17;;
51475;SDS011;37554;50.362;7.568;2023-05-10T14:23:23;1.65;;;0.10;;
51475;SDS011;37554;50.362;7.568;2023-05-10T14:25:52;0.32;;;0.10;;
51475;SDS011;37554;50.362;7.568;2023-05-10T14:28:18;0.30;;;0.10;;
51475;SDS011;37554;50.362;7.568;2023-05-10T14:30:44;0.32;;;0.10;;
51475;SDS011;37554;50.362;7.568;2023-05-10T14:33:10;0.20;;;0.17;;
51475;SDS011;37554;50.362;7.568;2023-05-10T14:35:35;0.10;;;0.00;;
51475;SDS011;37554;50.362;7.568;2023-05-10T14:38:01;0.52;;;0.10;;
51475;SDS011;37554;50.362;7.568;2023-05-10T14:40:28;0.15;;;0.03;;
51475;SDS011;37554;50.362;7.568;2023-05-10T14:42:54;0.10;;;0.10;;
51475;SDS011;37554;50.362;7.568;2023-05-10T14:45:21;0.08;;;0.08;;
51475;SDS011;37554;50.362;7.568;2023-05-10T14:47:47;0.63;;;0.08;;
51475;SDS011;37554;50.362;7.568;2023-05-10T14:50:13;0.52;;;0.10;;
51475;SDS011;37554;50.362;7.568;2023-05-10T14:52:39;0.13;;;0.10;;
51475;SDS011;37554;50.362;7.568;2023-05-10T14:55:04;0.40;;;0.30;;
51475;SDS011;37554;50.362;7.568;2023-05-10T14:57:30;0.22;;;0.20;;
51475;SDS011;37554;50.362;7.568;2023-05-10T14:59:57;0.80;;;0.20;;
51475;SDS011;37554;50.362;7.568;2023-05-10T15:02:23;0.90;;;0.10;;
51475;SDS011;37554;50.362;7.568;2023-05-10T15:04:48;0.17;;;0.10;;
51475;SDS011;37554;50.362;7.568;2023-05-10T15:07:14;0.35;;;0.10;;
51475;SDS011;37554;50.362;7.568;2023-05-10T15:09:41;0.22;;;0.08;;
51475;SDS011;37554;50.362;7.568;2023-05-10T15:12:06;0.70;;;0.20;;
51475;SDS011;37554;50.362;7.568;2023-05-10T15:14:32;0.32;;;0.10;;
51475;SDS011;37554;50.362;7.568;2023-05-10T15:16:58;0.10;;;0.10;;
51475;SDS011;37554;50.362;7.568;2023-05-10T15:19:24;0.30;;;0.10;;
51475;SDS011;37554;50.362;7.568;2023-05-10T15:21:50;0.30;;;0.10;;
51475;SDS011;37554;50.362;7.568;2023-05-10T15:24:15;0.08;;;0.00;;
51475;SDS011;37554;50.362;7.568;2023-05-10T15:26:41;0.45;;;0.30;;
51475;SDS011;37554;50.362;7.568;2023-05-10T15:29:06;0.35;;;0.08;;
51475;SDS011;37554;50.362;7.568;2023-05-10T15:31:32;0.10;;;0.10;;
51475;SDS011;37554;50.362;7.568;2023-05-10T15:34:01;0.20;;;0.10;;
51475;SDS011;37554;50.362;7.568;2023-05-10T15:36:31;0.43;;;0.15;;
51475;SDS011;37554;50.362;7.568;2023-05-10T15:38:57;0.68;;;0.10;;
51475;SDS011;37554;50.362;7.568;2023-05-10T15:41:22;0.43;;;0.10;;
51475;SDS011;37554;50.362;7.568;2023-05-10T15:43:48;0.93;;;0.10;;